sensor_id;sensor_type;location;lat;lon;timestamp;pressure;altitude;pressure_sealevel;temperature;humidity
54808;BME280;40708;50.364;7.550;2023-08-31T00:02:00;100387.75;;;13.48;100.00
54808;BME280;40708;50.364;7.550;2023-08-31T00:04:26;100384.19;;;13.46;100.00
54808;BME280;40708;50.364;7.550;2023-08-31T00:06:51;100389.56;;;13.44;100.00
54808;BME280;40708;50.364;7.550;2023-08-31T00:09:16;100385.09;;;13.45;100.00
54808;BME280;40708;50.364;7.550;2023-08-31T00:11:41;100377.13;;;13.45;100.00
54808;BME280;40708;50.364;7.550;2023-08-31T00:14:07;100388.66;;;13.44;100.00
54808;BME280;40708;50.364;7.550;2023-08-31T00:16:32;100386.00;;;13.44;100.00
54808;BME280;40708;50.364;7.550;2023-08-31T00:18:59;100387.81;;;13.42;100.00
54808;BME280;40708;50.364;7.550;2023-08-31T00:21:24;100390.47;;;13.40;100.00
54808;BME280;40708;50.364;7.550;2023-08-31T00:23:50;100398.47;;;13.42;100.00
54808;BME280;40708;50.364;7.550;2023-08-31T00:26:15;100399.34;;;13.41;100.00
54808;BME280;40708;50.364;7.550;2023-08-31T00:28:41;100401.16;;;13.39;100.00
54808;BME280;40708;50.364;7.550;2023-08-31T00:31:08;100389.66;;;13.35;100.00
54808;BME280;40708;50.364;7.550;2023-08-31T00:33:33;100388.75;;;13.36;100.00
54808;BME280;40708;50.364;7.550;2023-08-31T00:36:00;100398.56;;;13.33;100.00
54808;BME280;40708;50.364;7.550;2023-08-31T00:38:29;100394.16;;;13.30;100.00
54808;BME280;40708;50.364;7.550;2023-08-31T00:40:54;100393.25;;;13.30;100.00
54808;BME280;40708;50.364;7.550;2023-08-31T00:43:19;100396.88;;;13.26;100.00
54808;BME280;40708;50.364;7.550;2023-08-31T00:45:46;100400.47;;;13.23;100.00
54808;BME280;40708;50.364;7.550;2023-08-31T00:48:15;100393.38;;;13.21;100.00
54808;BME280;40708;50.364;7.550;2023-08-31T00:50:42;100400.47;;;13.22;100.00
54808;BME280;40708;50.364;7.550;2023-08-31T00:53:08;100397.81;;;13.20;100.00
54808;BME280;40708;50.364;7.550;2023-08-31T00:55:33;100393.41;;;13.18;100.00
54808;BME280;40708;50.364;7.550;2023-08-31T00:57:59;100394.34;;;13.13;100.00
54808;BME280;40708;50.364;7.550;2023-08-31T01:00:43;100394.38;;;13.10;100.00
54808;BME280;40708;50.364;7.550;2023-08-31T01:03:13;100396.16;;;13.05;100.00
54808;BME280;40708;50.364;7.550;2023-08-31T01:05:54;100396.25;;;12.98;100.00
54808;BME280;40708;50.364;7.550;2023-08-31T01:08:40;100414.06;;;12.93;100.00
54808;BME280;40708;50.364;7.550;2023-08-31T01:11:18;100417.59;;;12.92;100.00
54808;BME280;40708;50.364;7.550;2023-08-31T01:13:51;100418.50;;;12.92;100.00
54808;BME280;40708;50.364;7.550;2023-08-31T01:16:18;100420.28;;;12.93;100.00
54808;BME280;40708;50.364;7.550;2023-08-31T01:18:46;100414.03;;;12.96;100.00
54808;BME280;40708;50.364;7.550;2023-08-31T01:21:38;100414.88;;;13.01;100.00
54808;BME280;40708;50.364;7.550;2023-08-31T01:24:06;100409.50;;;13.04;100.00
54808;BME280;40708;50.364;7.550;2023-08-31T01:26:31;100415.69;;;13.09;100.00
54808;BME280;40708;50.364;7.550;2023-08-31T01:28:57;100419.22;;;13.11;100.00
54808;BME280;40708;50.364;7.550;2023-08-31T01:31:23;100425.41;;;13.15;100.00
54808;BME280;40708;50.364;7.550;2023-08-31T01:33:48;100423.59;;;13.17;100.00
54808;BME280;40708;50.364;7.550;2023-08-31T01:36:20;100433.34;;;13.21;100.00
54808;BME280;40708;50.364;7.550;2023-08-31T01:38:50;100430.63;;;13.24;100.00
54808;BME280;40708;50.364;7.550;2023-08-31T01:41:17;100423.53;;;13.24;100.00
54808;BME280;40708;50.364;7.550;2023-08-31T01:43:45;100411.09;;;13.25;100.00
54808;BME280;40708;50.364;7.550;2023-08-31T01:46:12;100417.31;;;13.25;100.00
54808;BME280;40708;50.364;7.550;2023-08-31T01:48:40;100416.38;;;13.28;100.00
54808;BME280;40708;50.364;7.550;2023-08-31T01:51:07;100407.50;;;13.27;100.00
54808;BME280;40708;50.364;7.550;2023-08-31T01:53:33;100411.94;;;13.27;100.00
54808;BME280;40708;50.364;7.550;2023-08-31T01:55:58;100418.16;;;13.27;100.00
54808;BME280;40708;50.364;7.550;2023-08-31T01:58:23;100429.72;;;13.28;100.00
54808;BME280;40708;50.364;7.550;2023-08-31T02:00:48;100419.94;;;13.28;100.00
54808;BME280;40708;50.364;7.550;2023-08-31T02:03:14;100437.66;;;13.29;100.00
54808;BME280;40708;50.364;7.550;2023-08-31T02:05:39;100426.16;;;13.29;100.00
54808;BME280;40708;50.364;7.550;2023-08-31T02:08:04;100422.56;;;13.30;100.00
54808;BME280;40708;50.364;7.550;2023-08-31T02:10:30;100418.16;;;13.29;100.00
54808;BME280;40708;50.364;7.550;2023-08-31T02:12:55;100419.06;;;13.28;100.00
54808;BME280;40708;50.364;7.550;2023-08-31T02:15:20;100424.38;;;13.28;100.00
54808;BME280;40708;50.364;7.550;2023-08-31T02:17:46;100416.41;;;13.25;100.00
54808;BME280;40708;50.364;7.550;2023-08-31T02:20:11;100412.88;;;13.26;100.00
54808;BME280;40708;50.364;7.550;2023-08-31T02:22:36;100428.84;;;13.26;100.00
54808;BME280;40708;50.364;7.550;2023-08-31T02:25:02;100428.00;;;13.22;100.00
54808;BME280;40708;50.364;7.550;2023-08-31T02:27:28;100426.19;;;13.26;100.00
54808;BME280;40708;50.364;7.550;2023-08-31T02:29:53;100427.06;;;13.25;100.00
54808;BME280;40708;50.364;7.550;2023-08-31T02:32:19;100407.56;;;13.23;100.00
54808;BME280;40708;50.364;7.550;2023-08-31T02:34:44;100405.78;;;13.23;100.00
54808;BME280;40708;50.364;7.550;2023-08-31T02:37:09;100399.56;;;13.21;100.00
54808;BME280;40708;50.364;7.550;2023-08-31T02:39:35;100396.94;;;13.20;100.00
54808;BME280;40708;50.364;7.550;2023-08-31T02:42:00;100391.66;;;13.15;100.00
54808;BME280;40708;50.364;7.550;2023-08-31T02:44:26;100400.56;;;13.11;100.00
54808;BME280;40708;50.364;7.550;2023-08-31T02:46:51;100389.09;;;13.03;100.00
54808;BME280;40708;50.364;7.550;2023-08-31T02:49:16;100386.50;;;12.95;100.00
54808;BME280;40708;50.364;7.550;2023-08-31T02:51:41;100390.13;;;12.90;100.00
54808;BME280;40708;50.364;7.550;2023-08-31T02:54:07;100390.19;;;12.82;100.00
54808;BME280;40708;50.364;7.550;2023-08-31T02:56:32;100389.38;;;12.77;100.00
54808;BME280;40708;50.364;7.550;2023-08-31T02:58:57;100390.28;;;12.73;100.00
54808;BME280;40708;50.364;7.550;2023-08-31T03:01:22;100393.84;;;12.69;100.00
54808;BME280;40708;50.364;7.550;2023-08-31T03:03:49;100395.66;;;12.64;100.00
54808;BME280;40708;50.364;7.550;2023-08-31T03:06:14;100393.94;;;12.60;100.00
54808;BME280;40708;50.364;7.550;2023-08-31T03:08:40;100402.81;;;12.59;100.00
54808;BME280;40708;50.364;7.550;2023-08-31T03:11:05;100401.94;;;12.57;100.00
54808;BME280;40708;50.364;7.550;2023-08-31T03:13:32;100408.16;;;12.56;100.00
54808;BME280;40708;50.364;7.550;2023-08-31T03:15:58;100404.66;;;12.52;100.00
54808;BME280;40708;50.364;7.550;2023-08-31T03:18:24;100403.72;;;12.57;100.00
54808;BME280;40708;50.364;7.550;2023-08-31T03:20:49;100404.59;;;12.55;100.00
54808;BME280;40708;50.364;7.550;2023-08-31T03:23:14;100409.06;;;12.55;100.00
54808;BME280;40708;50.364;7.550;2023-08-31T03:25:40;100397.53;;;12.54;100.00
54808;BME280;40708;50.364;7.550;2023-08-31T03:28:06;100409.06;;;12.53;100.00
54808;BME280;40708;50.364;7.550;2023-08-31T03:30:31;100398.44;;;12.53;100.00
54808;BME280;40708;50.364;7.550;2023-08-31T03:32:56;100394.91;;;12.51;100.00
54808;BME280;40708;50.364;7.550;2023-08-31T03:35:22;100391.38;;;12.49;100.00
54808;BME280;40708;50.364;7.550;2023-08-31T03:37:52;100381.66;;;12.47;100.00
54808;BME280;40708;50.364;7.550;2023-08-31T03:40:17;100373.69;;;12.42;100.00
54808;BME280;40708;50.364;7.550;2023-08-31T03:42:42;100375.53;;;12.36;100.00
54808;BME280;40708;50.364;7.550;2023-08-31T03:45:08;100371.09;;;12.32;100.00
54808;BME280;40708;50.364;7.550;2023-08-31T03:47:33;100372.03;;;12.29;100.00
54808;BME280;40708;50.364;7.550;2023-08-31T03:49:58;100375.63;;;12.25;100.00
54808;BME280;40708;50.364;7.550;2023-08-31T03:52:24;100373.84;;;12.24;100.00
54808;BME280;40708;50.364;7.550;2023-08-31T03:54:50;100371.22;;;12.18;100.00
54808;BME280;40708;50.364;7.550;2023-08-31T03:57:16;100381.00;;;12.15;100.00
54808;BME280;40708;50.364;7.550;2023-08-31T03:59:41;100378.34;;;12.10;100.00
54808;BME280;40708;50.364;7.550;2023-08-31T04:02:06;100385.47;;;12.11;100.00
54808;BME280;40708;50.364;7.550;2023-08-31T04:04:31;100389.88;;;12.12;100.00
54808;BME280;40708;50.364;7.550;2023-08-31T04:06:58;100384.59;;;12.09;100.00
54808;BME280;40708;50.364;7.550;2023-08-31T04:09:23;100392.59;;;12.06;100.00
54808;BME280;40708;50.364;7.550;2023-08-31T04:11:48;100400.56;;;12.06;100.00
54808;BME280;40708;50.364;7.550;2023-08-31T04:14:14;100410.34;;;12.03;100.00
54808;BME280;40708;50.364;7.550;2023-08-31T04:16:39;100419.22;;;12.00;100.00
54808;BME280;40708;50.364;7.550;2023-08-31T04:19:04;100419.22;;;12.00;100.00
54808;BME280;40708;50.364;7.550;2023-08-31T04:21:29;100431.56;;;12.04;100.00
54808;BME280;40708;50.364;7.550;2023-08-31T04:23:55;100446.66;;;12.05;100.00
54808;BME280;40708;50.364;7.550;2023-08-31T04:26:20;100457.31;;;12.04;100.00
54808;BME280;40708;50.364;7.550;2023-08-31T04:28:46;100458.19;;;12.06;100.00
54808;BME280;40708;50.364;7.550;2023-08-31T04:31:11;100469.69;;;12.05;100.00
54808;BME280;40708;50.364;7.550;2023-08-31T04:33:37;100468.81;;;12.04;100.00
54808;BME280;40708;50.364;7.550;2023-08-31T04:36:04;100476.78;;;12.07;100.00
54808;BME280;40708;50.364;7.550;2023-08-31T04:38:30;100467.91;;;12.07;100.00
54808;BME280;40708;50.364;7.550;2023-08-31T04:40:58;100466.16;;;12.04;100.00
54808;BME280;40708;50.364;7.550;2023-08-31T04:43:23;100464.41;;;12.03;100.00
54808;BME280;40708;50.364;7.550;2023-08-31T04:45:50;100468.81;;;12.04;100.00
54808;BME280;40708;50.364;7.550;2023-08-31T04:48:16;100467.94;;;12.04;100.00
54808;BME280;40708;50.364;7.550;2023-08-31T04:50:41;100473.25;;;12.04;100.00
54808;BME280;40708;50.364;7.550;2023-08-31T04:53:06;100475.94;;;12.04;100.00
54808;BME280;40708;50.364;7.550;2023-08-31T04:55:31;100471.50;;;12.03;100.00
54808;BME280;40708;50.364;7.550;2023-08-31T04:57:57;100465.31;;;12.01;100.00
54808;BME280;40708;50.364;7.550;2023-08-31T05:00:22;100473.25;;;11.99;100.00
54808;BME280;40708;50.364;7.550;2023-08-31T05:02:48;100473.25;;;12.02;100.00
54808;BME280;40708;50.364;7.550;2023-08-31T05:05:13;100467.03;;;12.05;100.00
54808;BME280;40708;50.364;7.550;2023-08-31T05:07:38;100479.44;;;12.09;100.00
54808;BME280;40708;50.364;7.550;2023-08-31T05:10:04;100467.88;;;12.13;100.00
54808;BME280;40708;50.364;7.550;2023-08-31T05:12:30;100466.97;;;12.18;100.00
54808;BME280;40708;50.364;7.550;2023-08-31T05:14:55;100474.03;;;12.22;100.00
54808;BME280;40708;50.364;7.550;2023-08-31T05:17:21;100477.53;;;12.30;100.00
54808;BME280;40708;50.364;7.550;2023-08-31T05:19:46;100481.94;;;12.39;100.00
54808;BME280;40708;50.364;7.550;2023-08-31T05:22:12;100480.91;;;12.53;100.00
54808;BME280;40708;50.364;7.550;2023-08-31T05:24:38;100471.94;;;12.68;100.00
54808;BME280;40708;50.364;7.550;2023-08-31T05:27:03;100460.34;;;12.77;100.00
54808;BME280;40708;50.364;7.550;2023-08-31T05:29:29;100453.19;;;12.83;100.00
54808;BME280;40708;50.364;7.550;2023-08-31T05:31:54;100449.56;;;12.93;100.00
54808;BME280;40708;50.364;7.550;2023-08-31T05:34:22;100439.72;;;13.01;100.00
54808;BME280;40708;50.364;7.550;2023-08-31T05:36:48;100422.84;;;13.07;100.00
54808;BME280;40708;50.364;7.550;2023-08-31T05:39:13;100411.97;;;13.25;100.00
54808;BME280;40708;50.364;7.550;2023-08-31T05:41:41;100405.63;;;13.37;100.00
54808;BME280;40708;50.364;7.550;2023-08-31T05:44:07;100392.06;;;13.55;100.00
54808;BME280;40708;50.364;7.550;2023-08-31T05:46:32;100373.38;;;13.56;100.00
54808;BME280;40708;50.364;7.550;2023-08-31T05:48:58;100366.09;;;13.70;100.00
54808;BME280;40708;50.364;7.550;2023-08-31T05:51:24;100354.88;;;14.08;100.00
54808;BME280;40708;50.364;7.550;2023-08-31T05:53:49;100334.56;;;14.00;100.00
54808;BME280;40708;50.364;7.550;2023-08-31T05:56:14;100322.94;;;14.02;100.00
54808;BME280;40708;50.364;7.550;2023-08-31T05:58:39;100305.34;;;13.92;100.00
54808;BME280;40708;50.364;7.550;2023-08-31T06:01:05;100288.56;;;13.84;100.00
54808;BME280;40708;50.364;7.550;2023-08-31T06:03:31;100288.44;;;13.92;100.00
54808;BME280;40708;50.364;7.550;2023-08-31T06:05:57;100281.56;;;14.34;100.00
54808;BME280;40708;50.364;7.550;2023-08-31T06:08:23;100250.03;;;14.55;100.00
54808;BME280;40708;50.364;7.550;2023-08-31T06:10:48;100237.38;;;15.09;100.00
54808;BME280;40708;50.364;7.550;2023-08-31T06:13:13;100198.69;;;15.27;100.00
54808;BME280;40708;50.364;7.550;2023-08-31T06:15:39;100178.56;;;15.51;100.00
54808;BME280;40708;50.364;7.550;2023-08-31T06:18:05;100150.28;;;16.09;100.00
54808;BME280;40708;50.364;7.550;2023-08-31T06:20:30;100126.41;;;16.66;100.00
54808;BME280;40708;50.364;7.550;2023-08-31T06:22:56;100092.06;;;16.81;100.00
54808;BME280;40708;50.364;7.550;2023-08-31T06:25:21;100068.00;;;16.79;100.00
54808;BME280;40708;50.364;7.550;2023-08-31T06:27:48;100063.91;;;16.66;100.00
54808;BME280;40708;50.364;7.550;2023-08-31T06:30:13;100068.78;;;17.64;100.00
54808;BME280;40708;50.364;7.550;2023-08-31T06:32:45;100061.72;;;17.62;100.00
54808;BME280;40708;50.364;7.550;2023-08-31T06:35:12;100046.06;;;17.48;100.00
54808;BME280;40708;50.364;7.550;2023-08-31T06:37:38;100048.13;;;17.40;100.00
54808;BME280;40708;50.364;7.550;2023-08-31T06:40:04;100039.59;;;18.05;100.00
54808;BME280;40708;50.364;7.550;2023-08-31T06:42:30;100040.25;;;18.36;100.00
54808;BME280;40708;50.364;7.550;2023-08-31T06:44:55;100037.69;;;17.05;100.00
54808;BME280;40708;50.364;7.550;2023-08-31T06:47:22;100064.28;;;16.52;100.00
54808;BME280;40708;50.364;7.550;2023-08-31T06:49:47;100075.25;;;16.76;100.00
54808;BME280;40708;50.364;7.550;2023-08-31T06:52:12;100073.41;;;16.47;100.00
54808;BME280;40708;50.364;7.550;2023-08-31T06:54:38;100086.13;;;16.39;100.00
54808;BME280;40708;50.364;7.550;2023-08-31T06:57:04;100085.19;;;16.41;100.00
54808;BME280;40708;50.364;7.550;2023-08-31T06:59:29;100099.34;;;16.14;100.00
54808;BME280;40708;50.364;7.550;2023-08-31T07:01:55;100096.47;;;16.20;100.00
54808;BME280;40708;50.364;7.550;2023-08-31T07:04:20;100101.63;;;16.28;100.00
54808;BME280;40708;50.364;7.550;2023-08-31T07:06:45;100103.31;;;15.99;100.00
54808;BME280;40708;50.364;7.550;2023-08-31T07:09:10;100100.56;;;16.02;100.00
54808;BME280;40708;50.364;7.550;2023-08-31T07:11:36;100101.66;;;16.26;100.00
54808;BME280;40708;50.364;7.550;2023-08-31T07:14:01;100107.81;;;15.97;100.00
54808;BME280;40708;50.364;7.550;2023-08-31T07:16:27;100111.41;;;15.96;100.00
54808;BME280;40708;50.364;7.550;2023-08-31T07:18:52;100119.94;;;16.11;100.00
54808;BME280;40708;50.364;7.550;2023-08-31T07:21:17;100120.31;;;16.29;100.00
54808;BME280;40708;50.364;7.550;2023-08-31T07:23:43;100105.56;;;16.45;100.00
54808;BME280;40708;50.364;7.550;2023-08-31T07:26:08;100107.84;;;16.28;100.00
54808;BME280;40708;50.364;7.550;2023-08-31T07:28:34;100119.56;;;16.56;100.00
54808;BME280;40708;50.364;7.550;2023-08-31T07:31:06;100104.94;;;16.05;100.00
54808;BME280;40708;50.364;7.550;2023-08-31T07:33:32;100117.13;;;15.83;100.00
54808;BME280;40708;50.364;7.550;2023-08-31T07:35:58;100134.56;;;15.64;100.00
54808;BME280;40708;50.364;7.550;2023-08-31T07:38:24;100132.53;;;15.73;100.00
54808;BME280;40708;50.364;7.550;2023-08-31T07:40:50;100139.59;;;15.76;100.00
54808;BME280;40708;50.364;7.550;2023-08-31T07:43:16;100133.31;;;15.78;100.00
54808;BME280;40708;50.364;7.550;2023-08-31T07:45:42;100136.19;;;15.71;100.00
54808;BME280;40708;50.364;7.550;2023-08-31T07:48:07;100135.16;;;15.75;100.00
54808;BME280;40708;50.364;7.550;2023-08-31T07:50:33;100153.00;;;15.74;100.00
54808;BME280;40708;50.364;7.550;2023-08-31T07:52:59;100142.63;;;15.96;100.00
54808;BME280;40708;50.364;7.550;2023-08-31T07:55:24;100161.09;;;15.73;100.00
54808;BME280;40708;50.364;7.550;2023-08-31T07:57:50;100162.13;;;15.66;100.00
54808;BME280;40708;50.364;7.550;2023-08-31T08:00:15;100168.50;;;15.60;100.00
54808;BME280;40708;50.364;7.550;2023-08-31T08:02:41;100177.94;;;15.38;100.00
54808;BME280;40708;50.364;7.550;2023-08-31T08:05:06;100190.91;;;15.16;100.00
54808;BME280;40708;50.364;7.550;2023-08-31T08:07:32;100185.91;;;15.39;100.00
54808;BME280;40708;50.364;7.550;2023-08-31T08:09:57;100196.91;;;15.26;100.00
54808;BME280;40708;50.364;7.550;2023-08-31T08:12:24;100199.66;;;15.24;100.00
54808;BME280;40708;50.364;7.550;2023-08-31T08:14:50;100190.03;;;15.16;100.00
54808;BME280;40708;50.364;7.550;2023-08-31T08:17:16;100197.09;;;15.18;100.00
54808;BME280;40708;50.364;7.550;2023-08-31T08:19:41;100189.19;;;15.54;100.00
54808;BME280;40708;50.364;7.550;2023-08-31T08:22:06;100203.53;;;15.49;100.00
54808;BME280;40708;50.364;7.550;2023-08-31T08:24:32;100203.03;;;15.71;100.00
54808;BME280;40708;50.364;7.550;2023-08-31T08:26:57;100193.19;;;15.71;100.00
54808;BME280;40708;50.364;7.550;2023-08-31T08:29:22;100196.06;;;15.64;100.00
54808;BME280;40708;50.364;7.550;2023-08-31T08:31:47;100193.09;;;15.76;100.00
54808;BME280;40708;50.364;7.550;2023-08-31T08:34:13;100196.13;;;15.62;100.00
54808;BME280;40708;50.364;7.550;2023-08-31T08:36:38;100185.22;;;16.05;100.00
54808;BME280;40708;50.364;7.550;2023-08-31T08:39:03;100184.63;;;16.28;100.00
54808;BME280;40708;50.364;7.550;2023-08-31T08:41:29;100177.59;;;16.56;100.00
54808;BME280;40708;50.364;7.550;2023-08-31T08:43:56;100155.28;;;17.45;100.00
54808;BME280;40708;50.364;7.550;2023-08-31T08:46:26;100145.47;;;18.22;100.00
54808;BME280;40708;50.364;7.550;2023-08-31T08:48:53;100123.59;;;18.82;100.00
54808;BME280;40708;50.364;7.550;2023-08-31T08:51:20;100105.03;;;19.21;100.00
54808;BME280;40708;50.364;7.550;2023-08-31T08:53:47;100075.00;;;20.15;100.00
54808;BME280;40708;50.364;7.550;2023-08-31T08:56:14;100084.56;;;19.60;100.00
54808;BME280;40708;50.364;7.550;2023-08-31T08:58:39;100079.69;;;19.27;100.00
54808;BME280;40708;50.364;7.550;2023-08-31T09:01:07;100082.47;;;19.47;100.00
54808;BME280;40708;50.364;7.550;2023-08-31T09:03:32;100093.72;;;19.56;100.00
54808;BME280;40708;50.364;7.550;2023-08-31T09:05:59;100093.00;;;19.30;100.00
54808;BME280;40708;50.364;7.550;2023-08-31T09:08:27;100086.44;;;19.80;100.00
54808;BME280;40708;50.364;7.550;2023-08-31T09:10:57;100095.75;;;19.72;100.00
54808;BME280;40708;50.364;7.550;2023-08-31T09:13:26;100099.94;;;19.35;100.00
54808;BME280;40708;50.364;7.550;2023-08-31T09:15:53;100096.00;;;19.45;100.00
54808;BME280;40708;50.364;7.550;2023-08-31T09:18:25;100097.53;;;19.29;100.00
54808;BME280;40708;50.364;7.550;2023-08-31T09:20:51;100099.00;;;19.36;100.00
54808;BME280;40708;50.364;7.550;2023-08-31T09:23:17;100097.56;;;19.71;100.00
54808;BME280;40708;50.364;7.550;2023-08-31T09:25:43;100093.50;;;19.83;100.00
54808;BME280;40708;50.364;7.550;2023-08-31T09:28:11;100086.84;;;19.91;100.00
54808;BME280;40708;50.364;7.550;2023-08-31T09:30:37;100088.25;;;20.00;100.00
54808;BME280;40708;50.364;7.550;2023-08-31T09:33:04;100080.25;;;20.18;100.00
54808;BME280;40708;50.364;7.550;2023-08-31T09:35:30;100076.53;;;20.01;100.00
54808;BME280;40708;50.364;7.550;2023-08-31T09:37:56;100075.06;;;20.34;100.00
54808;BME280;40708;50.364;7.550;2023-08-31T09:40:24;100074.16;;;20.35;100.00
54808;BME280;40708;50.364;7.550;2023-08-31T09:42:50;100073.38;;;20.11;100.00
54808;BME280;40708;50.364;7.550;2023-08-31T09:45:25;100074.69;;;19.81;100.00
54808;BME280;40708;50.364;7.550;2023-08-31T09:47:51;100070.22;;;20.02;100.00
54808;BME280;40708;50.364;7.550;2023-08-31T09:50:17;100068.00;;;20.32;100.00
54808;BME280;40708;50.364;7.550;2023-08-31T09:52:45;100064.28;;;20.73;100.00
54808;BME280;40708;50.364;7.550;2023-08-31T09:55:12;100052.03;;;20.66;100.00
54808;BME280;40708;50.364;7.550;2023-08-31T09:57:38;100050.66;;;20.76;100.00
54808;BME280;40708;50.364;7.550;2023-08-31T10:00:05;100063.22;;;20.38;100.00
54808;BME280;40708;50.364;7.550;2023-08-31T10:02:32;100057.97;;;20.35;100.00
54808;BME280;40708;50.364;7.550;2023-08-31T10:04:58;100052.72;;;21.08;100.00
54808;BME280;40708;50.364;7.550;2023-08-31T10:07:24;100039.34;;;21.24;100.00
54808;BME280;40708;50.364;7.550;2023-08-31T10:09:50;100038.28;;;21.45;100.00
54808;BME280;40708;50.364;7.550;2023-08-31T10:12:16;100038.84;;;21.52;100.00
54808;BME280;40708;50.364;7.550;2023-08-31T10:14:43;100027.31;;;20.94;100.00
54808;BME280;40708;50.364;7.550;2023-08-31T10:17:12;100040.28;;;20.48;100.00
54808;BME280;40708;50.364;7.550;2023-08-31T10:19:38;100033.19;;;21.39;100.00
54808;BME280;40708;50.364;7.550;2023-08-31T10:22:05;100032.03;;;21.62;100.00
54808;BME280;40708;50.364;7.550;2023-08-31T10:24:56;100029.50;;;21.04;100.00
54808;BME280;40708;50.364;7.550;2023-08-31T10:27:23;100038.91;;;20.58;100.00
54808;BME280;40708;50.364;7.550;2023-08-31T10:29:48;100053.78;;;19.88;100.00
54808;BME280;40708;50.364;7.550;2023-08-31T10:32:17;100042.31;;;20.25;100.00
54808;BME280;40708;50.364;7.550;2023-08-31T10:35:06;100041.59;;;20.77;100.00
54808;BME280;40708;50.364;7.550;2023-08-31T10:37:32;100040.81;;;20.75;100.00
54808;BME280;40708;50.364;7.550;2023-08-31T10:40:10;100040.19;;;21.07;100.00
54808;BME280;40708;50.364;7.550;2023-08-31T10:42:45;100040.38;;;21.03;100.00
54808;BME280;40708;50.364;7.550;2023-08-31T10:45:13;100038.47;;;21.23;100.00
54808;BME280;40708;50.364;7.550;2023-08-31T10:47:42;100038.34;;;21.08;100.00
54808;BME280;40708;50.364;7.550;2023-08-31T10:50:20;100034.00;;;21.04;100.00
54808;BME280;40708;50.364;7.550;2023-08-31T10:52:46;100039.88;;;20.95;100.00
54808;BME280;40708;50.364;7.550;2023-08-31T10:55:11;100032.13;;;20.68;100.00
54808;BME280;40708;50.364;7.550;2023-08-31T10:57:37;100046.06;;;21.15;100.00
54808;BME280;40708;50.364;7.550;2023-08-31T11:00:03;100031.78;;;21.66;100.00
54808;BME280;40708;50.364;7.550;2023-08-31T11:02:42;100035.56;;;21.09;100.00
54808;BME280;40708;50.364;7.550;2023-08-31T11:05:16;100028.34;;;20.91;100.00
54808;BME280;40708;50.364;7.550;2023-08-31T11:10:08;100032.56;;;20.97;100.00
54808;BME280;40708;50.364;7.550;2023-08-31T11:12:35;100029.59;;;21.03;100.00
54808;BME280;40708;50.364;7.550;2023-08-31T11:15:00;100040.69;;;20.78;100.00
54808;BME280;40708;50.364;7.550;2023-08-31T11:17:27;100036.81;;;20.84;100.00
54808;BME280;40708;50.364;7.550;2023-08-31T11:19:52;100041.25;;;20.85;100.00
54808;BME280;40708;50.364;7.550;2023-08-31T11:22:18;100037.69;;;21.21;100.00
54808;BME280;40708;50.364;7.550;2023-08-31T11:24:43;100032.94;;;21.26;100.00
54808;BME280;40708;50.364;7.550;2023-08-31T11:27:09;100035.56;;;21.45;100.00
54808;BME280;40708;50.364;7.550;2023-08-31T11:29:42;100029.97;;;21.67;100.00
54808;BME280;40708;50.364;7.550;2023-08-31T11:32:07;100030.19;;;21.62;100.00
54808;BME280;40708;50.364;7.550;2023-08-31T11:34:33;100041.47;;;21.70;100.00
54808;BME280;40708;50.364;7.550;2023-08-31T11:36:58;100030.91;;;21.13;100.00
54808;BME280;40708;50.364;7.550;2023-08-31T11:39:24;100022.66;;;21.16;100.00
54808;BME280;40708;50.364;7.550;2023-08-31T11:41:49;100011.81;;;20.80;100.00
54808;BME280;40708;50.364;7.550;2023-08-31T11:44:15;100020.22;;;21.28;100.00
54808;BME280;40708;50.364;7.550;2023-08-31T11:46:43;100008.31;;;21.15;100.00
54808;BME280;40708;50.364;7.550;2023-08-31T11:49:10;100014.00;;;21.09;100.00
54808;BME280;40708;50.364;7.550;2023-08-31T11:51:36;100026.38;;;20.95;100.00
54808;BME280;40708;50.364;7.550;2023-08-31T11:54:04;100020.13;;;21.13;100.00
54808;BME280;40708;50.364;7.550;2023-08-31T11:56:42;100024.50;;;20.78;100.00
54808;BME280;40708;50.364;7.550;2023-08-31T11:59:09;100020.19;;;20.74;100.00
54808;BME280;40708;50.364;7.550;2023-08-31T12:01:40;100023.53;;;20.42;100.00
54808;BME280;40708;50.364;7.550;2023-08-31T12:04:19;100034.06;;;20.07;100.00
54808;BME280;40708;50.364;7.550;2023-08-31T12:06:50;100031.53;;;20.23;100.00
54808;BME280;40708;50.364;7.550;2023-08-31T12:09:15;100038.25;;;19.94;100.00
54808;BME280;40708;50.364;7.550;2023-08-31T12:11:41;100039.78;;;19.80;100.00
54808;BME280;40708;50.364;7.550;2023-08-31T12:14:23;100032.31;;;19.86;100.00
54808;BME280;40708;50.364;7.550;2023-08-31T12:16:49;100039.31;;;19.90;100.00
54808;BME280;40708;50.364;7.550;2023-08-31T12:19:15;100034.47;;;19.98;100.00
54808;BME280;40708;50.364;7.550;2023-08-31T12:21:45;100032.91;;;20.13;100.00
54808;BME280;40708;50.364;7.550;2023-08-31T12:24:11;100031.59;;;20.03;100.00
54808;BME280;40708;50.364;7.550;2023-08-31T12:26:37;100022.31;;;20.49;100.00
54808;BME280;40708;50.364;7.550;2023-08-31T12:29:03;100018.81;;;20.84;100.00
54808;BME280;40708;50.364;7.550;2023-08-31T12:31:30;100021.63;;;21.00;100.00
54808;BME280;40708;50.364;7.550;2023-08-31T12:33:55;100014.47;;;21.36;100.00
54808;BME280;40708;50.364;7.550;2023-08-31T12:36:21;100006.78;;;21.63;100.00
54808;BME280;40708;50.364;7.550;2023-08-31T12:38:46;100003.94;;;21.66;100.00
54808;BME280;40708;50.364;7.550;2023-08-31T12:41:11;100014.22;;;21.75;100.00